XAX171 WMKL-YMML
Flight info
| Callsign | XAX171 |
|---|---|
| Flight time | N/A |
| Altitude | 37000 |
| Route | ANDOK1B ANDOK W531 VIH A464 VKL Y507 MAKNA Y511 TOPOR A464 ARAMA P501 ANITO B470 PKP L511 BOPLO T20 BRM/N0463F390 T20 AD DCT BENDO Y12 ARBEY |
| Aircraft | A339/H-SADE1E2E3GHIJ3J5M1P2RWXY/LB2D1 |
Departure
| Time | 2026-04-27 02:54 |
|---|---|
| Airport | Langkawi International Airport (WMKL) |
Arrival
| Time | N/A |
|---|---|
| Airport | Melbourne Airport (YMML) |
| Time | Latitude | Longitude | Altitude | Speed | Heading |
|---|---|---|---|---|---|
| 2026-04-27 02:48 | 6.34085 | 99.73333 | 31 ft | 0 kts | 35° |
| 2026-04-27 02:49 | 6.34091 | 99.73337 | 31 ft | 2 kts | 36° |
| 2026-04-27 02:49 | 6.34101 | 99.73359 | 31 ft | 5 kts | 71° |
| 2026-04-27 02:49 | 6.34093 | 99.73388 | 29 ft | 3 kts | 109° |
| 2026-04-27 02:50 | 6.34091 | 99.73399 | 28 ft | 3 kts | 103° |
| 2026-04-27 02:50 | 6.34098 | 99.73428 | 28 ft | 5 kts | 69° |
| 2026-04-27 02:50 | 6.34133 | 99.73458 | 30 ft | 7 kts | 32° |
| 2026-04-27 02:50 | 6.34173 | 99.73485 | 30 ft | 7 kts | 34° |
| 2026-04-27 02:51 | 6.34214 | 99.73513 | 29 ft | 7 kts | 34° |
| 2026-04-27 02:51 | 6.34259 | 99.73543 | 31 ft | 8 kts | 33° |
| 2026-04-27 02:51 | 6.34307 | 99.73577 | 30 ft | 9 kts | 34° |
| 2026-04-27 02:51 | 6.34361 | 99.73613 | 30 ft | 10 kts | 34° |
| 2026-04-27 02:52 | 6.34417 | 99.73654 | 30 ft | 10 kts | 41° |
| 2026-04-27 02:52 | 6.34448 | 99.73710 | 30 ft | 9 kts | 75° |
| 2026-04-27 02:52 | 6.34435 | 99.73767 | 27 ft | 8 kts | 118° |
| 2026-04-27 02:52 | 6.34397 | 99.73804 | 27 ft | 7 kts | 148° |
| 2026-04-27 02:53 | 6.34359 | 99.73807 | 27 ft | 5 kts | 186° |
| 2026-04-27 02:53 | 6.34336 | 99.73795 | 27 ft | 0 kts | 209° |
| 2026-04-27 02:53 | 6.34218 | 99.73716 | 27 ft | 51 kts | 214° |
| 2026-04-27 02:54 | 6.33709 | 99.73367 | 29 ft | 126 kts | 215° |
| 2026-04-27 02:54 | 6.32807 | 99.72746 | 30 ft | 185 kts | 212° |
| 2026-04-27 02:54 | 6.31643 | 99.72000 | 391 ft | 204 kts | 208° |
| 2026-04-27 02:54 | 6.30421 | 99.71297 | 1184 ft | 201 kts | 201° |
| 2026-04-27 02:55 | 6.29081 | 99.71116 | 1948 ft | 192 kts | 163° |
| 2026-04-27 02:55 | 6.27923 | 99.71748 | 2421 ft | 200 kts | 130° |
| 2026-04-27 02:55 | 6.27147 | 99.72988 | 2655 ft | 222 kts | 114° |
| 2026-04-27 02:55 | 6.26409 | 99.74480 | 2640 ft | 253 kts | 111° |
| 2026-04-27 02:56 | 6.25723 | 99.76189 | 2740 ft | 272 kts | 111° |
| 2026-04-27 02:56 | 6.24648 | 99.77732 | 3335 ft | 270 kts | 133° |
| 2026-04-27 02:56 | 6.23305 | 99.79034 | 4007 ft | 266 kts | 131° |
| 2026-04-27 02:56 | 6.22022 | 99.80353 | 4699 ft | 261 kts | 131° |
| 2026-04-27 02:57 | 6.20767 | 99.81669 | 5394 ft | 260 kts | 130° |
| 2026-04-27 02:57 | 6.19496 | 99.83012 | 5749 ft | 271 kts | 131° |
| 2026-04-27 02:57 | 6.18157 | 99.84360 | 6264 ft | 273 kts | 133° |
| 2026-04-27 02:57 | 6.16792 | 99.85704 | 6764 ft | 276 kts | 133° |
| 2026-04-27 02:58 | 6.15411 | 99.87053 | 7249 ft | 278 kts | 133° |
| 2026-04-27 02:58 | 6.14020 | 99.88415 | 7752 ft | 280 kts | 133° |
| 2026-04-27 02:58 | 6.12645 | 99.89765 | 8251 ft | 282 kts | 134° |
| 2026-04-27 02:58 | 6.11209 | 99.91178 | 8763 ft | 285 kts | 134° |
| 2026-04-27 02:59 | 6.09788 | 99.92577 | 9270 ft | 287 kts | 134° |
| 2026-04-27 02:59 | 6.08376 | 99.93971 | 9766 ft | 290 kts | 134° |
| 2026-04-27 02:59 | 6.06930 | 99.95401 | 10201 ft | 294 kts | 134° |
| 2026-04-27 02:59 | 6.05438 | 99.96883 | 10338 ft | 310 kts | 134° |
| 2026-04-27 03:00 | 6.03871 | 99.98444 | 10463 ft | 324 kts | 134° |
| 2026-04-27 03:00 | 6.02177 | 100.00020 | 10606 ft | 338 kts | 137° |
| 2026-04-27 03:00 | 6.00338 | 100.01522 | 10968 ft | 342 kts | 141° |
| 2026-04-27 03:00 | 5.98436 | 100.02939 | 11412 ft | 345 kts | 142° |
| 2026-04-27 03:01 | 5.96490 | 100.04394 | 11844 ft | 347 kts | 142° |
| 2026-04-27 03:01 | 5.94552 | 100.05854 | 12281 ft | 349 kts | 142° |
| 2026-04-27 03:01 | 5.92603 | 100.07325 | 12720 ft | 351 kts | 142° |
| 2026-04-27 03:01 | 5.90644 | 100.08804 | 13180 ft | 354 kts | 142° |
| 2026-04-27 03:02 | 5.88668 | 100.10296 | 13598 ft | 356 kts | 142° |
| 2026-04-27 03:02 | 5.86681 | 100.11797 | 13987 ft | 359 kts | 142° |
| 2026-04-27 03:02 | 5.84698 | 100.13295 | 14368 ft | 361 kts | 141° |
| 2026-04-27 03:02 | 5.83351 | 100.14313 | 14618 ft | 362 kts | 141° |
| 2026-04-27 03:03 | 5.80650 | 100.16354 | 15113 ft | 365 kts | 141° |
| 2026-04-27 03:03 | 5.77257 | 100.18917 | 15730 ft | 369 kts | 141° |
| 2026-04-27 03:03 | 5.74507 | 100.20995 | 16211 ft | 372 kts | 141° |
| 2026-04-27 03:04 | 5.73130 | 100.22034 | 16451 ft | 373 kts | 141° |
| 2026-04-27 03:04 | 5.71054 | 100.23602 | 16810 ft | 375 kts | 142° |
| 2026-04-27 03:04 | 5.68957 | 100.25185 | 17173 ft | 378 kts | 142° |
| 2026-04-27 03:04 | 5.66868 | 100.26762 | 17512 ft | 380 kts | 141° |
| 2026-04-27 03:05 | 5.64750 | 100.28364 | 17864 ft | 382 kts | 141° |
| 2026-04-27 03:05 | 5.62623 | 100.29972 | 18211 ft | 384 kts | 141° |
| 2026-04-27 03:05 | 5.60483 | 100.31590 | 18504 ft | 386 kts | 141° |
| 2026-04-27 03:05 | 5.58334 | 100.33215 | 18821 ft | 388 kts | 142° |
| 2026-04-27 03:06 | 5.56188 | 100.34837 | 19127 ft | 390 kts | 142° |
| 2026-04-27 03:06 | 5.53998 | 100.36492 | 19441 ft | 392 kts | 142° |
| 2026-04-27 03:06 | 5.51811 | 100.38145 | 19752 ft | 394 kts | 142° |
| 2026-04-27 03:06 | 5.49616 | 100.39803 | 20069 ft | 396 kts | 142° |
| 2026-04-27 03:07 | 5.47442 | 100.41445 | 20381 ft | 398 kts | 142° |
| 2026-04-27 03:07 | 5.45217 | 100.43125 | 20684 ft | 400 kts | 142° |
| 2026-04-27 03:07 | 5.42960 | 100.44828 | 21011 ft | 402 kts | 142° |
| 2026-04-27 03:07 | 5.40744 | 100.46500 | 21325 ft | 404 kts | 142° |
| 2026-04-27 03:08 | 5.38458 | 100.48226 | 21648 ft | 407 kts | 142° |
| 2026-04-27 03:08 | 5.36194 | 100.49936 | 21980 ft | 409 kts | 142° |
| 2026-04-27 03:08 | 5.33915 | 100.51657 | 22286 ft | 411 kts | 142° |
| 2026-04-27 03:08 | 5.31657 | 100.53362 | 22590 ft | 413 kts | 142° |
| 2026-04-27 03:09 | 5.29352 | 100.55103 | 22922 ft | 415 kts | 142° |
| 2026-04-27 03:09 | 5.27036 | 100.56852 | 23232 ft | 418 kts | 142° |
| 2026-04-27 03:09 | 5.24715 | 100.58604 | 23532 ft | 420 kts | 142° |
| 2026-04-27 03:09 | 5.22367 | 100.60376 | 23818 ft | 422 kts | 142° |
| 2026-04-27 03:10 | 5.20023 | 100.62146 | 24111 ft | 423 kts | 142° |
| 2026-04-27 03:10 | 5.17665 | 100.63925 | 24392 ft | 425 kts | 142° |
| 2026-04-27 03:10 | 5.15300 | 100.65710 | 24671 ft | 427 kts | 142° |
| 2026-04-27 03:10 | 5.12928 | 100.67501 | 24951 ft | 429 kts | 142° |
| 2026-04-27 03:11 | 5.10566 | 100.69283 | 25217 ft | 430 kts | 142° |
| 2026-04-27 03:11 | 5.08133 | 100.71119 | 25499 ft | 432 kts | 142° |
| 2026-04-27 03:11 | 5.05724 | 100.72936 | 25769 ft | 434 kts | 142° |
| 2026-04-27 03:11 | 5.03328 | 100.74743 | 26034 ft | 436 kts | 142° |
| 2026-04-27 03:12 | 5.00875 | 100.76594 | 26315 ft | 438 kts | 142° |
| 2026-04-27 03:12 | 4.98434 | 100.78437 | 26582 ft | 439 kts | 142° |
| 2026-04-27 03:12 | 4.95985 | 100.80283 | 26850 ft | 441 kts | 142° |
| 2026-04-27 03:12 | 4.93527 | 100.82135 | 27108 ft | 443 kts | 142° |
| 2026-04-27 03:13 | 4.91089 | 100.83975 | 27370 ft | 445 kts | 142° |
| 2026-04-27 03:13 | 4.88599 | 100.85854 | 27625 ft | 447 kts | 142° |
| 2026-04-27 03:13 | 4.86110 | 100.87730 | 27891 ft | 449 kts | 142° |
| 2026-04-27 03:13 | 4.83625 | 100.89601 | 28138 ft | 451 kts | 142° |
| 2026-04-27 03:14 | 4.81101 | 100.91503 | 28391 ft | 452 kts | 142° |
| 2026-04-27 03:14 | 4.78566 | 100.93415 | 28646 ft | 454 kts | 142° |
| 2026-04-27 03:14 | 4.76038 | 100.95320 | 28879 ft | 456 kts | 142° |
| 2026-04-27 03:14 | 4.73512 | 100.97223 | 29109 ft | 458 kts | 142° |
| 2026-04-27 03:15 | 4.70998 | 100.99117 | 29347 ft | 459 kts | 142° |
| 2026-04-27 03:15 | 4.68421 | 101.01059 | 29581 ft | 461 kts | 142° |
| 2026-04-27 03:15 | 4.65852 | 101.02994 | 29827 ft | 463 kts | 142° |
| 2026-04-27 03:15 | 4.63275 | 101.04935 | 30068 ft | 464 kts | 142° |
| 2026-04-27 03:16 | 4.60637 | 101.06813 | 30264 ft | 466 kts | 147° |
| 2026-04-27 03:16 | 4.57840 | 101.08453 | 30503 ft | 468 kts | 152° |
| 2026-04-27 03:16 | 4.54889 | 101.09856 | 30744 ft | 469 kts | 156° |
| 2026-04-27 03:16 | 4.51825 | 101.11004 | 30970 ft | 472 kts | 161° |
| 2026-04-27 03:17 | 4.48671 | 101.11925 | 31211 ft | 473 kts | 163° |
| 2026-04-27 03:17 | 4.45504 | 101.12829 | 31453 ft | 474 kts | 163° |
| 2026-04-27 03:17 | 4.42329 | 101.13749 | 31696 ft | 475 kts | 163° |
| 2026-04-27 03:17 | 4.39166 | 101.14670 | 31925 ft | 477 kts | 163° |
| 2026-04-27 03:18 | 4.35964 | 101.15603 | 32147 ft | 478 kts | 163° |
| 2026-04-27 03:18 | 4.32764 | 101.16534 | 32357 ft | 479 kts | 163° |
| 2026-04-27 03:18 | 4.29563 | 101.17465 | 32542 ft | 480 kts | 163° |
| 2026-04-27 03:18 | 4.26356 | 101.18398 | 32715 ft | 481 kts | 163° |
| 2026-04-27 03:19 | 4.23143 | 101.19331 | 32861 ft | 482 kts | 163° |
| 2026-04-27 03:19 | 4.19914 | 101.20268 | 32993 ft | 483 kts | 163° |
| 2026-04-27 03:19 | 4.16685 | 101.21206 | 33115 ft | 484 kts | 163° |
| 2026-04-27 03:19 | 4.13447 | 101.22145 | 33233 ft | 484 kts | 163° |
| 2026-04-27 03:20 | 4.10208 | 101.23086 | 33329 ft | 485 kts | 163° |
| 2026-04-27 03:20 | 4.06968 | 101.24027 | 33443 ft | 485 kts | 163° |
| 2026-04-27 03:20 | 4.03727 | 101.24968 | 33579 ft | 485 kts | 163° |
| 2026-04-27 03:20 | 4.00484 | 101.25910 | 33725 ft | 484 kts | 163° |
| 2026-04-27 03:21 | 3.97249 | 101.26849 | 33867 ft | 484 kts | 163° |
| 2026-04-27 03:21 | 3.94026 | 101.27784 | 33994 ft | 483 kts | 163° |
| 2026-04-27 03:21 | 3.90796 | 101.28721 | 34114 ft | 483 kts | 163° |
| 2026-04-27 03:21 | 3.87569 | 101.29659 | 34232 ft | 482 kts | 163° |
| 2026-04-27 03:22 | 3.84349 | 101.30593 | 34348 ft | 482 kts | 163° |
| 2026-04-27 03:22 | 3.81135 | 101.31526 | 34473 ft | 481 kts | 163° |
| 2026-04-27 03:22 | 3.77917 | 101.32466 | 34573 ft | 481 kts | 162° |
| 2026-04-27 03:22 | 3.74714 | 101.33425 | 34683 ft | 481 kts | 162° |
| 2026-04-27 03:23 | 3.71507 | 101.34392 | 34811 ft | 480 kts | 162° |
| 2026-04-27 03:23 | 3.65114 | 101.36316 | 35025 ft | 480 kts | 162° |
| 2026-04-27 03:23 | 3.61915 | 101.37276 | 35132 ft | 480 kts | 162° |
| 2026-04-27 03:24 | 3.58720 | 101.38234 | 35249 ft | 479 kts | 162° |
| 2026-04-27 03:24 | 3.55529 | 101.39189 | 35376 ft | 479 kts | 162° |
| 2026-04-27 03:24 | 3.52376 | 101.40133 | 35483 ft | 479 kts | 162° |
| 2026-04-27 03:24 | 3.49194 | 101.41086 | 35602 ft | 478 kts | 162° |
| 2026-04-27 03:25 | 3.46007 | 101.42040 | 35735 ft | 478 kts | 162° |
| 2026-04-27 03:25 | 3.42812 | 101.42997 | 35873 ft | 478 kts | 162° |
| 2026-04-27 03:25 | 3.39627 | 101.43951 | 36003 ft | 478 kts | 162° |
| 2026-04-27 03:25 | 3.36446 | 101.44903 | 36142 ft | 477 kts | 162° |
| 2026-04-27 03:26 | 3.33276 | 101.45887 | 36286 ft | 476 kts | 160° |
| 2026-04-27 03:26 | 3.30205 | 101.47113 | 36440 ft | 475 kts | 154° |
| 2026-04-27 03:26 | 3.27213 | 101.48515 | 36556 ft | 475 kts | 154° |
| 2026-04-27 03:26 | 3.24223 | 101.49909 | 36718 ft | 474 kts | 154° |
| 2026-04-27 03:27 | 3.21231 | 101.51292 | 36841 ft | 474 kts | 154° |
| 2026-04-27 03:27 | 3.18238 | 101.52673 | 36970 ft | 474 kts | 154° |
| 2026-04-27 03:27 | 3.15245 | 101.54053 | 37000 ft | 473 kts | 154° |
| 2026-04-27 03:28 | 3.09276 | 101.56804 | 37002 ft | 472 kts | 154° |
| 2026-04-27 03:28 | 3.03306 | 101.59560 | 37002 ft | 472 kts | 154° |
| 2026-04-27 03:29 | 2.97348 | 101.62310 | 36999 ft | 472 kts | 154° |
| 2026-04-27 03:29 | 2.91411 | 101.65050 | 37000 ft | 471 kts | 154° |
| 2026-04-27 03:30 | 2.85438 | 101.67806 | 36999 ft | 471 kts | 154° |
| 2026-04-27 03:30 | 2.79483 | 101.70552 | 37000 ft | 470 kts | 154° |
| 2026-04-27 03:31 | 2.73583 | 101.73273 | 36999 ft | 470 kts | 154° |
| 2026-04-27 03:31 | 2.67635 | 101.76093 | 36995 ft | 470 kts | 153° |
| 2026-04-27 03:32 | 2.61814 | 101.78959 | 36992 ft | 470 kts | 153° |
| 2026-04-27 03:32 | 2.56098 | 101.82096 | 36990 ft | 468 kts | 144° |
| 2026-04-27 03:33 | 2.51229 | 101.86369 | 36988 ft | 466 kts | 131° |
| 2026-04-27 03:33 | 2.47263 | 101.91493 | 36989 ft | 466 kts | 126° |
| 2026-04-27 03:34 | 2.43372 | 101.96673 | 36998 ft | 466 kts | 126° |
| 2026-04-27 03:34 | 2.39468 | 102.01849 | 37008 ft | 466 kts | 126° |
| 2026-04-27 03:35 | 2.35567 | 102.07026 | 37018 ft | 466 kts | 126° |
| 2026-04-27 03:35 | 2.31663 | 102.12208 | 37024 ft | 466 kts | 126° |
| 2026-04-27 03:36 | 2.27758 | 102.17392 | 37027 ft | 466 kts | 126° |
| 2026-04-27 03:36 | 2.23852 | 102.22575 | 37033 ft | 467 kts | 126° |
| 2026-04-27 03:37 | 2.19948 | 102.27756 | 37029 ft | 467 kts | 126° |
| 2026-04-27 03:37 | 2.16042 | 102.32938 | 37027 ft | 466 kts | 126° |
| 2026-04-27 03:38 | 2.12141 | 102.38114 | 37024 ft | 466 kts | 126° |
| 2026-04-27 03:38 | 2.08236 | 102.43294 | 37016 ft | 466 kts | 126° |
| 2026-04-27 03:39 | 2.04334 | 102.48468 | 37014 ft | 466 kts | 126° |
| 2026-04-27 03:39 | 2.00436 | 102.53639 | 37012 ft | 466 kts | 126° |
| 2026-04-27 03:40 | 1.96544 | 102.58807 | 37012 ft | 466 kts | 126° |
| 2026-04-27 03:40 | 1.92649 | 102.63977 | 37007 ft | 465 kts | 126° |
| 2026-04-27 03:41 | 1.88751 | 102.69152 | 37010 ft | 465 kts | 126° |
| 2026-04-27 03:41 | 1.84862 | 102.74313 | 37010 ft | 465 kts | 126° |
| 2026-04-27 03:42 | 1.80968 | 102.79480 | 37006 ft | 465 kts | 126° |
| 2026-04-27 03:42 | 1.77078 | 102.84642 | 37009 ft | 465 kts | 126° |
| 2026-04-27 03:43 | 1.73324 | 102.89895 | 37004 ft | 464 kts | 120° |
| 2026-04-27 03:43 | 1.70254 | 102.95569 | 37006 ft | 464 kts | 117° |
| 2026-04-27 03:44 | 1.67225 | 103.01264 | 37006 ft | 464 kts | 117° |
| 2026-04-27 03:44 | 1.64177 | 103.06944 | 36999 ft | 464 kts | 119° |
| 2026-04-27 03:45 | 1.60284 | 103.12076 | 37001 ft | 466 kts | 133° |
| 2026-04-27 03:45 | 1.55236 | 103.16143 | 37001 ft | 468 kts | 146° |
| 2026-04-27 03:46 | 1.49766 | 103.19690 | 37002 ft | 469 kts | 145° |
| 2026-04-27 03:46 | 1.44319 | 103.23274 | 37001 ft | 469 kts | 145° |
| 2026-04-27 03:47 | 1.38867 | 103.26861 | 37006 ft | 469 kts | 145° |
| 2026-04-27 03:47 | 1.33447 | 103.30423 | 37003 ft | 470 kts | 145° |
| 2026-04-27 03:48 | 1.27989 | 103.34009 | 37007 ft | 470 kts | 145° |
| 2026-04-27 03:48 | 1.22553 | 103.37596 | 37008 ft | 470 kts | 145° |
| 2026-04-27 03:49 | 1.17063 | 103.41251 | 37005 ft | 470 kts | 145° |
| 2026-04-27 03:49 | 1.11658 | 103.44845 | 37008 ft | 470 kts | 145° |
| 2026-04-27 03:50 | 1.06224 | 103.48486 | 37005 ft | 469 kts | 142° |
| 2026-04-27 03:50 | 1.01299 | 103.52740 | 37004 ft | 468 kts | 133° |
| 2026-04-27 03:51 | 0.96805 | 103.57434 | 37003 ft | 468 kts | 133° |
| 2026-04-27 03:51 | 0.93018 | 103.61348 | 37010 ft | 468 kts | 133° |
| 2026-04-27 03:52 | 0.88487 | 103.66023 | 37010 ft | 468 kts | 133° |
| 2026-04-27 03:52 | 0.83225 | 103.71458 | 37011 ft | 468 kts | 133° |
| 2026-04-27 03:53 | 0.79428 | 103.75382 | 37014 ft | 468 kts | 133° |
| 2026-04-27 03:53 | 0.74901 | 103.80059 | 37014 ft | 468 kts | 133° |
| 2026-04-27 03:54 | 0.70369 | 103.84741 | 37011 ft | 469 kts | 133° |
| 2026-04-27 03:54 | 0.65868 | 103.89391 | 37011 ft | 469 kts | 133° |
| 2026-04-27 03:55 | 0.61337 | 103.94072 | 37012 ft | 469 kts | 133° |
| 2026-04-27 03:55 | 0.56800 | 103.98758 | 37011 ft | 469 kts | 133° |
| 2026-04-27 03:56 | 0.52266 | 104.03441 | 37009 ft | 469 kts | 133° |
| 2026-04-27 03:56 | 0.47728 | 104.08125 | 37012 ft | 469 kts | 133° |
| 2026-04-27 03:57 | 0.43192 | 104.12808 | 37015 ft | 469 kts | 133° |
| 2026-04-27 03:57 | 0.38654 | 104.17493 | 37012 ft | 469 kts | 133° |
| 2026-04-27 03:58 | 0.34118 | 104.22175 | 37013 ft | 469 kts | 133° |
| 2026-04-27 03:58 | 0.29581 | 104.26860 | 37013 ft | 469 kts | 133° |
| 2026-04-27 03:59 | 0.25046 | 104.31543 | 37013 ft | 469 kts | 133° |
| 2026-04-27 03:59 | 0.20515 | 104.36222 | 37015 ft | 469 kts | 133° |
| 2026-04-27 04:00 | 0.15990 | 104.40894 | 37015 ft | 469 kts | 133° |
| 2026-04-27 04:00 | 0.11450 | 104.45581 | 37014 ft | 468 kts | 133° |
| 2026-04-27 04:01 | 0.06920 | 104.50259 | 37014 ft | 468 kts | 133° |
| 2026-04-27 04:01 | 0.02393 | 104.54933 | 37017 ft | 468 kts | 133° |
| 2026-04-27 04:02 | -0.02135 | 104.59608 | 37011 ft | 468 kts | 133° |
| 2026-04-27 04:02 | -0.06659 | 104.64279 | 37007 ft | 468 kts | 133° |
| 2026-04-27 04:03 | -0.11163 | 104.68930 | 37011 ft | 468 kts | 133° |
| 2026-04-27 04:03 | -0.15679 | 104.73594 | 37004 ft | 468 kts | 133° |
| 2026-04-27 04:04 | -0.20199 | 104.78261 | 37013 ft | 468 kts | 133° |
| 2026-04-27 04:04 | -0.24721 | 104.82930 | 37017 ft | 468 kts | 133° |
| 2026-04-27 04:05 | -0.29496 | 104.87371 | 37008 ft | 469 kts | 141° |
| 2026-04-27 04:05 | -0.34869 | 104.91085 | 37010 ft | 470 kts | 145° |
| 2026-04-27 04:06 | -0.40292 | 104.94746 | 37007 ft | 471 kts | 144° |
| 2026-04-27 04:06 | -0.45717 | 104.98421 | 37007 ft | 471 kts | 144° |
| 2026-04-27 04:07 | -0.53854 | 105.03929 | 37010 ft | 471 kts | 144° |
| 2026-04-27 04:07 | -0.59287 | 105.07605 | 37006 ft | 472 kts | 144° |
| 2026-04-27 04:08 | -0.64725 | 105.11285 | 37007 ft | 472 kts | 144° |
| 2026-04-27 04:08 | -0.70166 | 105.14966 | 37003 ft | 472 kts | 144° |
| 2026-04-27 04:09 | -0.75593 | 105.18639 | 37005 ft | 473 kts | 144° |
| 2026-04-27 04:09 | -0.81059 | 105.22338 | 37004 ft | 473 kts | 144° |
| 2026-04-27 04:10 | -0.86507 | 105.26025 | 37006 ft | 473 kts | 144° |
| 2026-04-27 04:10 | -0.91961 | 105.29716 | 37007 ft | 474 kts | 144° |
| 2026-04-27 04:11 | -0.97417 | 105.33409 | 37007 ft | 474 kts | 144° |
| 2026-04-27 04:11 | -1.02874 | 105.37103 | 37004 ft | 474 kts | 144° |
| 2026-04-27 04:12 | -1.08334 | 105.40798 | 37005 ft | 474 kts | 144° |
| 2026-04-27 04:12 | -1.13797 | 105.44496 | 37001 ft | 474 kts | 144° |
| 2026-04-27 04:13 | -1.19258 | 105.48193 | 37001 ft | 474 kts | 144° |
| 2026-04-27 04:13 | -1.24725 | 105.51893 | 37001 ft | 475 kts | 144° |
| 2026-04-27 04:14 | -1.30190 | 105.55592 | 37002 ft | 475 kts | 144° |
| 2026-04-27 04:14 | -1.35621 | 105.59269 | 36998 ft | 475 kts | 144° |
| 2026-04-27 04:15 | -1.41131 | 105.63000 | 36993 ft | 475 kts | 144° |
| 2026-04-27 04:15 | -1.46606 | 105.66707 | 36997 ft | 475 kts | 144° |
| 2026-04-27 04:16 | -1.52046 | 105.70391 | 36995 ft | 476 kts | 144° |
| 2026-04-27 04:16 | -1.57524 | 105.74100 | 36995 ft | 476 kts | 144° |
| 2026-04-27 04:17 | -1.63005 | 105.77812 | 36995 ft | 476 kts | 144° |
| 2026-04-27 04:17 | -1.68483 | 105.81522 | 36997 ft | 476 kts | 144° |
| 2026-04-27 04:18 | -1.73967 | 105.85237 | 36998 ft | 476 kts | 144° |
| 2026-04-27 04:18 | -1.79449 | 105.88950 | 36995 ft | 476 kts | 144° |
| 2026-04-27 04:19 | -1.84938 | 105.92668 | 36997 ft | 477 kts | 144° |
| 2026-04-27 04:19 | -1.90422 | 105.96384 | 36997 ft | 476 kts | 144° |
| 2026-04-27 04:20 | -1.95913 | 106.00103 | 36998 ft | 476 kts | 144° |
| 2026-04-27 04:20 | -2.01400 | 106.03821 | 36995 ft | 477 kts | 144° |
| 2026-04-27 04:21 | -2.06889 | 106.07540 | 36991 ft | 477 kts | 144° |
| 2026-04-27 04:21 | -2.12374 | 106.11262 | 36993 ft | 476 kts | 144° |
| 2026-04-27 04:22 | -2.17423 | 106.15511 | 36994 ft | 475 kts | 134° |
| 2026-04-27 04:22 | -2.21665 | 106.20510 | 36994 ft | 474 kts | 127° |
| 2026-04-27 04:23 | -2.25740 | 106.25749 | 36995 ft | 474 kts | 127° |
| 2026-04-27 04:23 | -2.29779 | 106.30907 | 36995 ft | 474 kts | 127° |
| 2026-04-27 04:24 | -2.33841 | 106.36099 | 36995 ft | 474 kts | 127° |
| 2026-04-27 04:24 | -2.37900 | 106.41290 | 36994 ft | 474 kts | 127° |
| 2026-04-27 04:25 | -2.41961 | 106.46486 | 36992 ft | 474 kts | 127° |
| 2026-04-27 04:25 | -2.46016 | 106.51674 | 36990 ft | 474 kts | 127° |
| 2026-04-27 04:26 | -2.50073 | 106.56867 | 36993 ft | 474 kts | 127° |
| 2026-04-27 04:26 | -2.54128 | 106.62057 | 36995 ft | 474 kts | 127° |
| 2026-04-27 04:27 | -2.58184 | 106.67247 | 36993 ft | 474 kts | 127° |
| 2026-04-27 04:27 | -2.62243 | 106.72443 | 36992 ft | 474 kts | 127° |
| 2026-04-27 04:28 | -2.66295 | 106.77631 | 36993 ft | 474 kts | 127° |
| 2026-04-27 04:28 | -2.70332 | 106.82801 | 36992 ft | 474 kts | 127° |
| 2026-04-27 04:29 | -2.74406 | 106.88018 | 36993 ft | 474 kts | 127° |
| 2026-04-27 04:29 | -2.78455 | 106.93204 | 36991 ft | 474 kts | 127° |
| 2026-04-27 04:30 | -2.82490 | 106.98373 | 36992 ft | 474 kts | 127° |
| 2026-04-27 04:30 | -2.86570 | 107.03599 | 36991 ft | 474 kts | 127° |
| 2026-04-27 04:31 | -2.90599 | 107.08761 | 36991 ft | 474 kts | 127° |
| 2026-04-27 04:31 | -2.94679 | 107.13989 | 36988 ft | 473 kts | 127° |
| 2026-04-27 04:32 | -2.98703 | 107.19146 | 36987 ft | 473 kts | 127° |
| 2026-04-27 04:32 | -3.02752 | 107.24336 | 36987 ft | 473 kts | 127° |
| 2026-04-27 04:33 | -3.06805 | 107.29531 | 36990 ft | 473 kts | 127° |
| 2026-04-27 04:33 | -3.10852 | 107.34720 | 36986 ft | 473 kts | 127° |
| 2026-04-27 04:34 | -3.14898 | 107.39908 | 36989 ft | 473 kts | 127° |
| 2026-04-27 04:34 | -3.18946 | 107.45099 | 36988 ft | 473 kts | 127° |
| 2026-04-27 04:35 | -3.22986 | 107.50281 | 36990 ft | 472 kts | 127° |
| 2026-04-27 04:35 | -3.27027 | 107.55466 | 36987 ft | 472 kts | 127° |
| 2026-04-27 04:36 | -3.31070 | 107.60652 | 36984 ft | 472 kts | 127° |
| 2026-04-27 04:36 | -3.35122 | 107.65825 | 36982 ft | 472 kts | 127° |
| 2026-04-27 04:37 | -3.39203 | 107.70985 | 36983 ft | 472 kts | 127° |
| 2026-04-27 04:37 | -3.43276 | 107.76140 | 36982 ft | 473 kts | 127° |
| 2026-04-27 04:38 | -3.46667 | 107.80436 | 36986 ft | 473 kts | 127° |
| 2026-04-27 04:38 | -3.51402 | 107.86439 | 36983 ft | 473 kts | 127° |
| 2026-04-27 04:39 | -3.55481 | 107.91611 | 36982 ft | 473 kts | 127° |
| 2026-04-27 04:39 | -3.59560 | 107.96783 | 36982 ft | 474 kts | 127° |
| 2026-04-27 04:40 | -3.63644 | 108.01961 | 36995 ft | 473 kts | 127° |
| 2026-04-27 04:40 | -3.67037 | 108.06265 | 36983 ft | 470 kts | 127° |
| 2026-04-27 04:41 | -3.71750 | 108.12246 | 36980 ft | 470 kts | 127° |
| 2026-04-27 04:41 | -3.75145 | 108.16554 | 36980 ft | 470 kts | 127° |
| 2026-04-27 04:42 | -3.79165 | 108.21657 | 36983 ft | 470 kts | 127° |
| 2026-04-27 04:42 | -3.83213 | 108.26795 | 36982 ft | 470 kts | 127° |
| 2026-04-27 04:43 | -3.87257 | 108.31928 | 36981 ft | 469 kts | 127° |
| 2026-04-27 04:43 | -3.91298 | 108.37060 | 36983 ft | 469 kts | 127° |
| 2026-04-27 04:44 | -3.95340 | 108.42193 | 36984 ft | 469 kts | 127° |
| 2026-04-27 04:44 | -3.99376 | 108.47320 | 36982 ft | 469 kts | 127° |
| 2026-04-27 04:45 | -4.03401 | 108.52434 | 36942 ft | 467 kts | 127° |
| 2026-04-27 04:45 | -4.07422 | 108.57543 | 36865 ft | 468 kts | 127° |
| 2026-04-27 04:46 | -4.11459 | 108.62673 | 36867 ft | 469 kts | 127° |
| 2026-04-27 04:46 | -4.15493 | 108.67800 | 36865 ft | 468 kts | 127° |
| 2026-04-27 04:47 | -4.19525 | 108.72927 | 36866 ft | 469 kts | 127° |
| 2026-04-27 04:47 | -4.23553 | 108.78049 | 36861 ft | 469 kts | 127° |
| 2026-04-27 04:48 | -4.27600 | 108.83196 | 36862 ft | 469 kts | 126° |
| 2026-04-27 04:48 | -4.31603 | 108.88289 | 36857 ft | 470 kts | 126° |
| 2026-04-27 04:49 | -4.35658 | 108.93448 | 36855 ft | 470 kts | 126° |
| 2026-04-27 04:49 | -4.39708 | 108.98601 | 36856 ft | 471 kts | 126° |
| 2026-04-27 04:50 | -4.43756 | 109.03754 | 36860 ft | 471 kts | 126° |
| 2026-04-27 04:50 | -4.47809 | 109.08914 | 36863 ft | 471 kts | 126° |
| 2026-04-27 04:51 | -4.51864 | 109.14077 | 36864 ft | 471 kts | 126° |
| 2026-04-27 04:51 | -4.55911 | 109.19230 | 36859 ft | 471 kts | 126° |
| 2026-04-27 04:52 | -4.59960 | 109.24389 | 36862 ft | 471 kts | 126° |
| 2026-04-27 04:52 | -4.64009 | 109.29547 | 36862 ft | 470 kts | 126° |
| 2026-04-27 04:53 | -4.68048 | 109.34694 | 36861 ft | 470 kts | 126° |
| 2026-04-27 04:53 | -4.72087 | 109.39842 | 36862 ft | 469 kts | 126° |
| 2026-04-27 04:54 | -4.76119 | 109.44984 | 36862 ft | 469 kts | 126° |
| 2026-04-27 04:54 | -4.80145 | 109.50117 | 36860 ft | 468 kts | 126° |
| 2026-04-27 04:55 | -4.84158 | 109.55235 | 36858 ft | 467 kts | 126° |
| 2026-04-27 04:55 | -4.88183 | 109.60370 | 36857 ft | 467 kts | 126° |
| 2026-04-27 04:56 | -4.92166 | 109.65453 | 36852 ft | 467 kts | 126° |
| 2026-04-27 04:56 | -4.96178 | 109.70573 | 36854 ft | 466 kts | 126° |
| 2026-04-27 04:57 | -5.00184 | 109.75687 | 36855 ft | 466 kts | 126° |
| 2026-04-27 04:57 | -5.04186 | 109.80797 | 36852 ft | 466 kts | 126° |
| 2026-04-27 04:58 | -5.08187 | 109.85908 | 36846 ft | 466 kts | 126° |
| 2026-04-27 04:58 | -5.12187 | 109.91017 | 36849 ft | 465 kts | 126° |
| 2026-04-27 04:59 | -5.16182 | 109.96121 | 36854 ft | 465 kts | 126° |
| 2026-04-27 04:59 | -5.20170 | 110.01217 | 36857 ft | 465 kts | 126° |
| 2026-04-27 05:00 | -5.24164 | 110.06323 | 36849 ft | 465 kts | 126° |
| 2026-04-27 05:00 | -5.28152 | 110.11422 | 36848 ft | 464 kts | 126° |
| 2026-04-27 05:01 | -5.32136 | 110.16517 | 36850 ft | 464 kts | 126° |
| 2026-04-27 05:01 | -5.36118 | 110.21611 | 36848 ft | 464 kts | 126° |
| 2026-04-27 05:02 | -5.40105 | 110.26713 | 36848 ft | 464 kts | 126° |
| 2026-04-27 05:03 | -5.46081 | 110.34361 | 36848 ft | 464 kts | 126° |
| 2026-04-27 05:03 | -5.50074 | 110.39452 | 36835 ft | 465 kts | 126° |
| 2026-04-27 05:04 | -5.54107 | 110.44526 | 36849 ft | 466 kts | 126° |
| 2026-04-27 05:04 | -5.58158 | 110.49626 | 36853 ft | 467 kts | 126° |
| 2026-04-27 05:05 | -5.62208 | 110.54734 | 36853 ft | 468 kts | 126° |
| 2026-04-27 05:05 | -5.66232 | 110.59812 | 36846 ft | 469 kts | 126° |
| 2026-04-27 05:06 | -5.70299 | 110.64945 | 36846 ft | 470 kts | 126° |
| 2026-04-27 05:06 | -5.74380 | 110.70097 | 36851 ft | 471 kts | 126° |
| 2026-04-27 05:07 | -5.78460 | 110.75251 | 36855 ft | 472 kts | 126° |
| 2026-04-27 05:07 | -5.82546 | 110.80413 | 36854 ft | 473 kts | 126° |
| 2026-04-27 05:08 | -5.86639 | 110.85584 | 36852 ft | 473 kts | 126° |
| 2026-04-27 05:08 | -5.90702 | 110.90719 | 36849 ft | 474 kts | 126° |
| 2026-04-27 05:09 | -5.94840 | 110.95951 | 36851 ft | 474 kts | 126° |
| 2026-04-27 05:09 | -5.98949 | 111.01146 | 36850 ft | 475 kts | 126° |
| 2026-04-27 05:10 | -6.03057 | 111.06343 | 36847 ft | 475 kts | 126° |
| 2026-04-27 05:10 | -6.07159 | 111.11535 | 36854 ft | 475 kts | 126° |
| 2026-04-27 05:11 | -6.11267 | 111.16734 | 36851 ft | 475 kts | 126° |
| 2026-04-27 05:11 | -6.15381 | 111.21941 | 36851 ft | 475 kts | 126° |
| 2026-04-27 05:12 | -6.19487 | 111.27140 | 36851 ft | 475 kts | 126° |
| 2026-04-27 05:12 | -6.23588 | 111.32335 | 36846 ft | 474 kts | 126° |
| 2026-04-27 05:13 | -6.27668 | 111.37503 | 36850 ft | 474 kts | 126° |
| 2026-04-27 05:13 | -6.31758 | 111.42688 | 36847 ft | 474 kts | 126° |
| 2026-04-27 05:14 | -6.35877 | 111.47909 | 36846 ft | 474 kts | 126° |
| 2026-04-27 05:14 | -6.39969 | 111.53100 | 36845 ft | 473 kts | 126° |
| 2026-04-27 05:15 | -6.44032 | 111.58254 | 36842 ft | 473 kts | 126° |
| 2026-04-27 05:15 | -6.48115 | 111.63434 | 36841 ft | 473 kts | 126° |
| 2026-04-27 05:16 | -6.52196 | 111.68614 | 36838 ft | 472 kts | 126° |
| 2026-04-27 05:16 | -6.56274 | 111.73791 | 36843 ft | 472 kts | 126° |
| 2026-04-27 05:17 | -6.60349 | 111.78966 | 36842 ft | 472 kts | 126° |
| 2026-04-27 05:17 | -6.64420 | 111.84138 | 36831 ft | 472 kts | 126° |
| 2026-04-27 05:18 | -6.71868 | 111.93605 | 36833 ft | 472 kts | 125° |
| 2026-04-27 05:18 | -6.80013 | 112.03962 | 36831 ft | 472 kts | 125° |
| 2026-04-27 05:19 | -6.88167 | 112.14338 | 36832 ft | 473 kts | 125° |
| 2026-04-27 05:19 | -6.96327 | 112.24726 | 36832 ft | 474 kts | 125° |
| 2026-04-27 05:20 | -7.04501 | 112.35139 | 36836 ft | 474 kts | 125° |
| 2026-04-27 05:20 | -7.12689 | 112.45577 | 36837 ft | 475 kts | 125° |
| 2026-04-27 05:21 | -7.20876 | 112.56021 | 36843 ft | 475 kts | 125° |
| 2026-04-27 05:21 | -7.29024 | 112.66420 | 36852 ft | 476 kts | 125° |
| 2026-04-27 05:22 | -7.37308 | 112.76857 | 36855 ft | 478 kts | 130° |
| 2026-04-27 05:22 | -7.47295 | 112.85829 | 36855 ft | 482 kts | 136° |
| 2026-04-27 05:23 | -7.57227 | 112.94590 | 36853 ft | 482 kts | 136° |
| 2026-04-27 05:23 | -7.67387 | 113.03552 | 36857 ft | 482 kts | 136° |
| 2026-04-27 05:24 | -7.77473 | 113.12455 | 36866 ft | 482 kts | 136° |
| 2026-04-27 05:24 | -7.87565 | 113.21369 | 36869 ft | 482 kts | 136° |
| 2026-04-27 05:25 | -7.97656 | 113.30288 | 36866 ft | 482 kts | 136° |
| 2026-04-27 05:25 | -8.07745 | 113.39214 | 36863 ft | 482 kts | 136° |
| 2026-04-27 05:26 | -8.17733 | 113.48057 | 36870 ft | 483 kts | 136° |
| 2026-04-27 05:26 | -8.27878 | 113.57046 | 36856 ft | 483 kts | 136° |
| 2026-04-27 05:27 | -8.38026 | 113.66042 | 36855 ft | 483 kts | 136° |
| 2026-04-27 05:27 | -8.48125 | 113.75000 | 36847 ft | 483 kts | 136° |
| 2026-04-27 05:28 | -8.58150 | 113.83899 | 36845 ft | 483 kts | 136° |
| 2026-04-27 05:28 | -8.68254 | 113.92875 | 36834 ft | 483 kts | 136° |
| 2026-04-27 05:29 | -8.78347 | 114.01847 | 36836 ft | 484 kts | 136° |
| 2026-04-27 05:29 | -8.88451 | 114.10837 | 36832 ft | 484 kts | 136° |
| 2026-04-27 05:30 | -8.98551 | 114.19830 | 36842 ft | 484 kts | 136° |
| 2026-04-27 05:30 | -9.07029 | 114.27384 | 36843 ft | 484 kts | 136° |
| 2026-04-27 05:31 | -9.17136 | 114.36396 | 36839 ft | 484 kts | 136° |
| 2026-04-27 05:31 | -9.27162 | 114.45342 | 36840 ft | 484 kts | 136° |
| 2026-04-27 05:32 | -9.37279 | 114.54378 | 36841 ft | 485 kts | 136° |
| 2026-04-27 05:32 | -9.47383 | 114.63409 | 36842 ft | 485 kts | 136° |
| 2026-04-27 05:33 | -9.57516 | 114.72473 | 36836 ft | 486 kts | 136° |
| 2026-04-27 05:33 | -9.67648 | 114.81544 | 36838 ft | 486 kts | 136° |
| 2026-04-27 05:34 | -9.77775 | 114.90617 | 36840 ft | 486 kts | 136° |
| 2026-04-27 05:34 | -9.87903 | 114.99700 | 36842 ft | 486 kts | 137° |
| 2026-04-27 05:35 | -9.98039 | 115.08798 | 36835 ft | 487 kts | 136° |
| 2026-04-27 05:35 | -10.07698 | 115.17474 | 36832 ft | 488 kts | 136° |
| 2026-04-27 05:36 | -10.17795 | 115.26550 | 36834 ft | 489 kts | 136° |
| 2026-04-27 05:36 | -10.27994 | 115.35727 | 36836 ft | 490 kts | 136° |
| 2026-04-27 05:37 | -10.38205 | 115.44925 | 36835 ft | 491 kts | 136° |
| 2026-04-27 05:37 | -10.48431 | 115.54144 | 36838 ft | 492 kts | 136° |
| 2026-04-27 05:38 | -10.58691 | 115.63401 | 36840 ft | 493 kts | 136° |
| 2026-04-27 05:38 | -10.68958 | 115.72674 | 36841 ft | 494 kts | 136° |
| 2026-04-27 05:39 | -10.79237 | 115.81966 | 36842 ft | 495 kts | 136° |
| 2026-04-27 05:39 | -10.89531 | 115.91280 | 36842 ft | 495 kts | 137° |
| 2026-04-27 05:40 | -10.99825 | 116.00604 | 36844 ft | 496 kts | 137° |
| 2026-04-27 05:40 | -11.10127 | 116.09943 | 36845 ft | 496 kts | 137° |
| 2026-04-27 05:41 | -11.20418 | 116.19283 | 36846 ft | 496 kts | 137° |
| 2026-04-27 05:41 | -11.30718 | 116.28640 | 36846 ft | 496 kts | 137° |
| 2026-04-27 05:42 | -11.41015 | 116.38003 | 36849 ft | 496 kts | 137° |
| 2026-04-27 05:42 | -11.51306 | 116.47370 | 36850 ft | 496 kts | 137° |
| 2026-04-27 05:43 | -11.61607 | 116.56756 | 36848 ft | 496 kts | 137° |
| 2026-04-27 05:43 | -11.71894 | 116.66141 | 36849 ft | 496 kts | 137° |
| 2026-04-27 05:44 | -11.82181 | 116.75533 | 36851 ft | 496 kts | 137° |
| 2026-04-27 05:44 | -11.92468 | 116.84933 | 36852 ft | 496 kts | 137° |
| 2026-04-27 05:45 | -12.02788 | 116.94316 | 36852 ft | 497 kts | 139° |
| 2026-04-27 05:45 | -12.13387 | 117.03397 | 36851 ft | 497 kts | 139° |
| 2026-04-27 05:46 | -12.23936 | 117.12509 | 36854 ft | 497 kts | 139° |
| 2026-04-27 05:46 | -12.34480 | 117.21632 | 36855 ft | 497 kts | 139° |
| 2026-04-27 05:47 | -12.45045 | 117.30786 | 36856 ft | 497 kts | 139° |
| 2026-04-27 05:47 | -12.55588 | 117.39931 | 36860 ft | 497 kts | 139° |
| 2026-04-27 05:48 | -12.66043 | 117.49009 | 36861 ft | 497 kts | 140° |
| 2026-04-27 05:48 | -12.76666 | 117.58244 | 36862 ft | 496 kts | 140° |
| 2026-04-27 05:49 | -12.87190 | 117.67403 | 36863 ft | 496 kts | 140° |
| 2026-04-27 05:49 | -12.97707 | 117.76566 | 36865 ft | 496 kts | 140° |
| 2026-04-27 05:50 | -13.08155 | 117.85680 | 36862 ft | 496 kts | 140° |
| 2026-04-27 05:50 | -13.18658 | 117.94851 | 36862 ft | 496 kts | 140° |
| 2026-04-27 05:51 | -13.29164 | 118.04038 | 36859 ft | 496 kts | 140° |
| 2026-04-27 05:51 | -13.39670 | 118.13234 | 36865 ft | 496 kts | 140° |
| 2026-04-27 05:52 | -13.50165 | 118.22431 | 36869 ft | 496 kts | 140° |
| 2026-04-27 05:52 | -13.60663 | 118.31644 | 36867 ft | 496 kts | 140° |
| 2026-04-27 05:53 | -13.71151 | 118.40857 | 36873 ft | 496 kts | 140° |
| 2026-04-27 05:53 | -13.81640 | 118.50083 | 36869 ft | 496 kts | 140° |
| 2026-04-27 05:54 | -13.92120 | 118.59312 | 36871 ft | 496 kts | 140° |
| 2026-04-27 05:54 | -14.02597 | 118.68550 | 36873 ft | 496 kts | 140° |
| 2026-04-27 05:55 | -14.13066 | 118.77793 | 36871 ft | 496 kts | 140° |
| 2026-04-27 05:55 | -14.23546 | 118.87056 | 36871 ft | 497 kts | 140° |
| 2026-04-27 05:56 | -14.34021 | 118.96328 | 36874 ft | 497 kts | 140° |
| 2026-04-27 05:56 | -14.44510 | 119.05623 | 36875 ft | 497 kts | 140° |
| 2026-04-27 05:57 | -14.55001 | 119.14932 | 36880 ft | 497 kts | 140° |
| 2026-04-27 05:57 | -14.65469 | 119.24235 | 36878 ft | 497 kts | 140° |
| 2026-04-27 05:58 | -14.75942 | 119.33552 | 36882 ft | 497 kts | 140° |
| 2026-04-27 05:58 | -14.86404 | 119.42872 | 36880 ft | 497 kts | 140° |
| 2026-04-27 05:59 | -14.96875 | 119.52200 | 36884 ft | 497 kts | 140° |
| 2026-04-27 05:59 | -15.07343 | 119.61548 | 36886 ft | 497 kts | 140° |
| 2026-04-27 06:00 | -15.22948 | 119.75513 | 36889 ft | 497 kts | 140° |
| 2026-04-27 06:00 | -15.33493 | 119.84967 | 36891 ft | 497 kts | 140° |
| 2026-04-27 06:01 | -15.42512 | 119.93060 | 36890 ft | 498 kts | 140° |
| 2026-04-27 06:01 | -15.47713 | 119.97734 | 36891 ft | 498 kts | 140° |
| 2026-04-27 06:02 | -15.52946 | 120.02439 | 36874 ft | 498 kts | 140° |
| 2026-04-27 06:02 | -15.58176 | 120.07144 | 36873 ft | 498 kts | 140° |
| 2026-04-27 06:03 | -15.63407 | 120.11854 | 36895 ft | 498 kts | 140° |
| 2026-04-27 06:03 | -15.68640 | 120.16567 | 36898 ft | 498 kts | 140° |
| 2026-04-27 06:04 | -15.73867 | 120.21279 | 36890 ft | 498 kts | 140° |
| 2026-04-27 06:04 | -15.79091 | 120.25992 | 36873 ft | 498 kts | 140° |
| 2026-04-27 06:05 | -15.84314 | 120.30707 | 36874 ft | 498 kts | 140° |
| 2026-04-27 06:05 | -15.89540 | 120.35428 | 36895 ft | 497 kts | 140° |
| 2026-04-27 06:06 | -15.94718 | 120.40110 | 36898 ft | 497 kts | 140° |
| 2026-04-27 06:06 | -15.99984 | 120.44874 | 36879 ft | 498 kts | 140° |
| 2026-04-27 06:07 | -16.05204 | 120.49599 | 36877 ft | 498 kts | 140° |
| 2026-04-27 06:07 | -16.10422 | 120.54328 | 36876 ft | 498 kts | 140° |
| 2026-04-27 06:08 | -16.15612 | 120.59033 | 36898 ft | 498 kts | 140° |
| 2026-04-27 06:08 | -16.20829 | 120.63768 | 36900 ft | 498 kts | 140° |
| 2026-04-27 06:09 | -16.26047 | 120.68508 | 36885 ft | 498 kts | 140° |
| 2026-04-27 06:09 | -16.31240 | 120.73227 | 36877 ft | 498 kts | 140° |
| 2026-04-27 06:10 | -16.36484 | 120.77995 | 36881 ft | 498 kts | 140° |
| 2026-04-27 06:10 | -16.41689 | 120.82730 | 36901 ft | 498 kts | 140° |
| 2026-04-27 06:11 | -16.46901 | 120.87477 | 36884 ft | 498 kts | 140° |
| 2026-04-27 06:11 | -16.52134 | 120.92246 | 36890 ft | 498 kts | 140° |
| 2026-04-27 06:12 | -16.57345 | 120.96997 | 36886 ft | 498 kts | 140° |
| 2026-04-27 06:12 | -16.62560 | 121.01757 | 36885 ft | 498 kts | 140° |
| 2026-04-27 06:13 | -16.67767 | 121.06512 | 36892 ft | 498 kts | 140° |
| 2026-04-27 06:13 | -16.72981 | 121.11278 | 36888 ft | 498 kts | 140° |
| 2026-04-27 06:14 | -16.78189 | 121.16042 | 36889 ft | 498 kts | 140° |
| 2026-04-27 06:14 | -16.83400 | 121.20812 | 36884 ft | 498 kts | 140° |
| 2026-04-27 06:15 | -16.88604 | 121.25580 | 36883 ft | 498 kts | 140° |
| 2026-04-27 06:15 | -16.93808 | 121.30351 | 36884 ft | 498 kts | 140° |
| 2026-04-27 06:16 | -16.99017 | 121.35130 | 36884 ft | 498 kts | 140° |
| 2026-04-27 06:16 | -17.04187 | 121.39877 | 36886 ft | 498 kts | 140° |
| 2026-04-27 06:17 | -17.09389 | 121.44657 | 36888 ft | 498 kts | 140° |
| 2026-04-27 06:17 | -17.14586 | 121.49436 | 36886 ft | 498 kts | 140° |
| 2026-04-27 06:18 | -17.19784 | 121.54220 | 36887 ft | 498 kts | 140° |
| 2026-04-27 06:18 | -17.27825 | 121.61628 | 36880 ft | 498 kts | 140° |
| 2026-04-27 06:19 | -17.36455 | 121.69590 | 36884 ft | 498 kts | 140° |
| 2026-04-27 06:19 | -17.46840 | 121.79181 | 36879 ft | 498 kts | 140° |
| 2026-04-27 06:20 | -17.57223 | 121.88788 | 36876 ft | 498 kts | 140° |
| 2026-04-27 06:20 | -17.67597 | 121.98400 | 36877 ft | 498 kts | 140° |
| 2026-04-27 06:21 | -17.77966 | 122.08021 | 36883 ft | 498 kts | 140° |
| 2026-04-27 06:21 | -17.90026 | 122.19229 | 36886 ft | 498 kts | 140° |
| 2026-04-27 06:22 | -17.99020 | 122.26852 | 36881 ft | 495 kts | 147° |
| 2026-04-27 06:22 | -18.10248 | 122.35253 | 36882 ft | 495 kts | 147° |
| 2026-04-27 06:23 | -18.21410 | 122.43662 | 36877 ft | 495 kts | 147° |
| 2026-04-27 06:23 | -18.32637 | 122.52133 | 36879 ft | 495 kts | 147° |
| 2026-04-27 06:24 | -18.43849 | 122.60606 | 36882 ft | 495 kts | 147° |
| 2026-04-27 06:24 | -18.54948 | 122.69007 | 36879 ft | 495 kts | 147° |
| 2026-04-27 06:25 | -18.66124 | 122.77488 | 36880 ft | 495 kts | 147° |
| 2026-04-27 06:25 | -18.77320 | 122.85992 | 36876 ft | 495 kts | 147° |
| 2026-04-27 06:26 | -18.88504 | 122.94504 | 36888 ft | 495 kts | 147° |
| 2026-04-27 06:26 | -18.99656 | 123.03007 | 36884 ft | 495 kts | 147° |
| 2026-04-27 06:27 | -19.10819 | 123.11531 | 36885 ft | 494 kts | 147° |
| 2026-04-27 06:27 | -19.21955 | 123.20049 | 36883 ft | 494 kts | 147° |
| 2026-04-27 06:28 | -19.33082 | 123.28574 | 36881 ft | 494 kts | 147° |
| 2026-04-27 06:28 | -19.44202 | 123.37110 | 36886 ft | 494 kts | 148° |
| 2026-04-27 06:29 | -19.55322 | 123.45659 | 36884 ft | 494 kts | 148° |
| 2026-04-27 06:29 | -19.66438 | 123.54221 | 36879 ft | 494 kts | 148° |
| 2026-04-27 06:30 | -19.77550 | 123.62795 | 36887 ft | 494 kts | 148° |
| 2026-04-27 06:30 | -19.88595 | 123.71332 | 36898 ft | 494 kts | 148° |
| 2026-04-27 06:31 | -19.99789 | 123.79999 | 36894 ft | 495 kts | 148° |
| 2026-04-27 06:31 | -20.10922 | 123.88634 | 36909 ft | 495 kts | 148° |
| 2026-04-27 06:32 | -20.22043 | 123.97276 | 36905 ft | 495 kts | 148° |
| 2026-04-27 06:32 | -20.33096 | 124.05883 | 36915 ft | 496 kts | 148° |
| 2026-04-27 06:33 | -20.44240 | 124.14575 | 36908 ft | 496 kts | 148° |
| 2026-04-27 06:33 | -20.55433 | 124.23319 | 36913 ft | 495 kts | 148° |
| 2026-04-27 06:34 | -20.66545 | 124.32019 | 36911 ft | 495 kts | 148° |
| 2026-04-27 06:34 | -20.77618 | 124.40703 | 36913 ft | 495 kts | 148° |
| 2026-04-27 06:35 | -20.88761 | 124.49457 | 36917 ft | 495 kts | 148° |
| 2026-04-27 06:35 | -20.99822 | 124.58165 | 36918 ft | 495 kts | 148° |
| 2026-04-27 06:36 | -21.10939 | 124.66933 | 36921 ft | 494 kts | 148° |
| 2026-04-27 06:36 | -21.17795 | 124.72348 | 36920 ft | 494 kts | 148° |
| 2026-04-27 06:37 | -21.23327 | 124.76722 | 36922 ft | 494 kts | 148° |
| 2026-04-27 06:37 | -21.28857 | 124.81099 | 36925 ft | 494 kts | 148° |
| 2026-04-27 06:38 | -21.34384 | 124.85478 | 36922 ft | 494 kts | 148° |
| 2026-04-27 06:38 | -21.39907 | 124.89858 | 36923 ft | 494 kts | 148° |
| 2026-04-27 06:39 | -21.45429 | 124.94241 | 36922 ft | 494 kts | 148° |
| 2026-04-27 06:39 | -21.50954 | 124.98631 | 36923 ft | 494 kts | 148° |
| 2026-04-27 06:40 | -21.56464 | 125.03013 | 36926 ft | 494 kts | 148° |
| 2026-04-27 06:40 | -21.62002 | 125.07420 | 36928 ft | 494 kts | 148° |
| 2026-04-27 06:41 | -21.67527 | 125.11819 | 36930 ft | 495 kts | 148° |
| 2026-04-27 06:41 | -21.73054 | 125.16228 | 36928 ft | 495 kts | 148° |
| 2026-04-27 06:42 | -21.78579 | 125.20648 | 36933 ft | 495 kts | 148° |
| 2026-04-27 06:42 | -21.84109 | 125.25069 | 36933 ft | 495 kts | 148° |
| 2026-04-27 06:43 | -21.89641 | 125.29497 | 36935 ft | 495 kts | 148° |
| 2026-04-27 06:43 | -21.95157 | 125.33918 | 36937 ft | 496 kts | 148° |
| 2026-04-27 06:44 | -22.00704 | 125.38366 | 36937 ft | 496 kts | 148° |
| 2026-04-27 06:44 | -22.06191 | 125.42772 | 36939 ft | 496 kts | 148° |
| 2026-04-27 06:45 | -22.11730 | 125.47223 | 36935 ft | 496 kts | 148° |
| 2026-04-27 06:45 | -22.17301 | 125.51705 | 36943 ft | 496 kts | 148° |
| 2026-04-27 06:46 | -22.22794 | 125.56129 | 36943 ft | 496 kts | 148° |
| 2026-04-27 06:46 | -22.28359 | 125.60615 | 36944 ft | 496 kts | 148° |
| 2026-04-27 06:47 | -22.33849 | 125.65044 | 36948 ft | 496 kts | 148° |
| 2026-04-27 06:47 | -22.39377 | 125.69511 | 36945 ft | 496 kts | 148° |
| 2026-04-27 06:48 | -22.44903 | 125.73979 | 36948 ft | 496 kts | 148° |
| 2026-04-27 06:48 | -22.50428 | 125.78451 | 36950 ft | 496 kts | 148° |
| 2026-04-27 06:49 | -22.55954 | 125.82928 | 36951 ft | 496 kts | 148° |
| 2026-04-27 06:49 | -22.61468 | 125.87401 | 36949 ft | 496 kts | 148° |
| 2026-04-27 06:50 | -22.66998 | 125.91890 | 36952 ft | 497 kts | 148° |
| 2026-04-27 06:50 | -22.72521 | 125.96379 | 36952 ft | 497 kts | 149° |
| 2026-04-27 06:51 | -22.78052 | 126.00879 | 36953 ft | 497 kts | 149° |
| 2026-04-27 06:51 | -22.83582 | 126.05383 | 36960 ft | 497 kts | 149° |
| 2026-04-27 06:52 | -22.89110 | 126.09890 | 36962 ft | 497 kts | 149° |
| 2026-04-27 06:52 | -22.94635 | 126.14398 | 36963 ft | 497 kts | 149° |
| 2026-04-27 06:53 | -23.00151 | 126.18906 | 36964 ft | 496 kts | 149° |
| 2026-04-27 06:53 | -23.05663 | 126.23414 | 36967 ft | 496 kts | 149° |
| 2026-04-27 06:54 | -23.11178 | 126.27929 | 36966 ft | 496 kts | 149° |
| 2026-04-27 06:54 | -23.16684 | 126.32440 | 36966 ft | 495 kts | 149° |
| 2026-04-27 06:55 | -23.22183 | 126.36953 | 36967 ft | 495 kts | 149° |
| 2026-04-27 06:55 | -23.27676 | 126.41464 | 36964 ft | 495 kts | 149° |
| 2026-04-27 06:56 | -23.33168 | 126.45979 | 36965 ft | 495 kts | 149° |
| 2026-04-27 06:56 | -23.38601 | 126.50449 | 36962 ft | 495 kts | 149° |
| 2026-04-27 06:57 | -23.44106 | 126.54988 | 36966 ft | 495 kts | 149° |
| 2026-04-27 06:57 | -23.49592 | 126.59513 | 36961 ft | 495 kts | 149° |
| 2026-04-27 06:58 | -23.57817 | 126.66307 | 36980 ft | 494 kts | 149° |
| 2026-04-27 06:59 | -23.63296 | 126.70839 | 36986 ft | 494 kts | 149° |
| 2026-04-27 06:59 | -23.68768 | 126.75369 | 36978 ft | 494 kts | 149° |
| 2026-04-27 07:00 | -23.74233 | 126.79898 | 36980 ft | 493 kts | 149° |
| 2026-04-27 07:00 | -23.79695 | 126.84429 | 36978 ft | 493 kts | 149° |
| 2026-04-27 07:01 | -23.85154 | 126.88964 | 36976 ft | 493 kts | 149° |
| 2026-04-27 07:01 | -23.90612 | 126.93503 | 36982 ft | 493 kts | 149° |
| 2026-04-27 07:02 | -23.96070 | 126.98047 | 36982 ft | 493 kts | 149° |
| 2026-04-27 07:02 | -24.01525 | 127.02594 | 36982 ft | 493 kts | 149° |
| 2026-04-27 07:03 | -24.06981 | 127.07145 | 36985 ft | 493 kts | 149° |
| 2026-04-27 07:03 | -24.12430 | 127.11697 | 36984 ft | 493 kts | 149° |
| 2026-04-27 07:04 | -24.17866 | 127.16243 | 37215 ft | 494 kts | 149° |
| 2026-04-27 07:04 | -24.20616 | 127.18545 | 37406 ft | 493 kts | 149° |
| 2026-04-27 07:04 | -24.23343 | 127.20830 | 37576 ft | 493 kts | 149° |
| 2026-04-27 07:04 | -24.26045 | 127.23094 | 37737 ft | 493 kts | 149° |
| 2026-04-27 07:05 | -24.28790 | 127.25394 | 37924 ft | 493 kts | 149° |
| 2026-04-27 07:05 | -24.31504 | 127.27671 | 38091 ft | 492 kts | 150° |
| 2026-04-27 07:05 | -24.34230 | 127.29958 | 38263 ft | 492 kts | 150° |
| 2026-04-27 07:05 | -24.36941 | 127.32233 | 38409 ft | 492 kts | 150° |
| 2026-04-27 07:06 | -24.39659 | 127.34518 | 38582 ft | 492 kts | 150° |
| 2026-04-27 07:06 | -24.42341 | 127.36774 | 38734 ft | 491 kts | 150° |
| 2026-04-27 07:06 | -24.45046 | 127.39051 | 38875 ft | 490 kts | 150° |
| 2026-04-27 07:06 | -24.47772 | 127.41345 | 38999 ft | 490 kts | 150° |
| 2026-04-27 07:07 | -24.50492 | 127.43633 | 38991 ft | 489 kts | 150° |
| 2026-04-27 07:07 | -24.54971 | 127.47406 | 38996 ft | 488 kts | 150° |
| 2026-04-27 07:08 | -24.60349 | 127.51940 | 38994 ft | 488 kts | 150° |
| 2026-04-27 07:08 | -24.65722 | 127.56476 | 38992 ft | 487 kts | 150° |
| 2026-04-27 07:09 | -24.71105 | 127.61026 | 38995 ft | 487 kts | 150° |
| 2026-04-27 07:09 | -24.76474 | 127.65570 | 38990 ft | 487 kts | 149° |
| 2026-04-27 07:10 | -24.81792 | 127.70077 | 38992 ft | 488 kts | 149° |
| 2026-04-27 07:10 | -24.87190 | 127.74655 | 38996 ft | 488 kts | 149° |
| 2026-04-27 07:11 | -24.92575 | 127.79228 | 38993 ft | 489 kts | 149° |
| 2026-04-27 07:11 | -24.97963 | 127.83809 | 38999 ft | 490 kts | 149° |
| 2026-04-27 07:12 | -25.03356 | 127.88401 | 39003 ft | 490 kts | 149° |
| 2026-04-27 07:12 | -25.08758 | 127.93004 | 39007 ft | 491 kts | 149° |
| 2026-04-27 07:13 | -25.14161 | 127.97614 | 39014 ft | 490 kts | 149° |
| 2026-04-27 07:13 | -25.19558 | 128.02222 | 39015 ft | 490 kts | 149° |
| 2026-04-27 07:14 | -25.24923 | 128.06810 | 39021 ft | 489 kts | 150° |
| 2026-04-27 07:14 | -25.30321 | 128.11432 | 39022 ft | 489 kts | 150° |
| 2026-04-27 07:15 | -25.35686 | 128.16030 | 39022 ft | 488 kts | 150° |
| 2026-04-27 07:15 | -25.41045 | 128.20627 | 39018 ft | 487 kts | 149° |
| 2026-04-27 07:16 | -25.46392 | 128.25218 | 39017 ft | 487 kts | 149° |
| 2026-04-27 07:16 | -25.51743 | 128.29820 | 39016 ft | 486 kts | 149° |
| 2026-04-27 07:17 | -25.57076 | 128.34413 | 39017 ft | 486 kts | 149° |
| 2026-04-27 07:17 | -25.62408 | 128.39010 | 39016 ft | 486 kts | 149° |
| 2026-04-27 07:18 | -25.67739 | 128.43610 | 39017 ft | 485 kts | 149° |
| 2026-04-27 07:18 | -25.73071 | 128.48218 | 39023 ft | 485 kts | 149° |
| 2026-04-27 07:19 | -25.78394 | 128.52823 | 39024 ft | 485 kts | 149° |
| 2026-04-27 07:19 | -25.83715 | 128.57430 | 39023 ft | 485 kts | 149° |
| 2026-04-27 07:20 | -25.89001 | 128.62013 | 39019 ft | 485 kts | 149° |
| 2026-04-27 07:20 | -25.94312 | 128.66623 | 39022 ft | 485 kts | 149° |
| 2026-04-27 07:21 | -25.99629 | 128.71243 | 39022 ft | 485 kts | 149° |
| 2026-04-27 07:21 | -26.04945 | 128.75868 | 39030 ft | 485 kts | 149° |
| 2026-04-27 07:22 | -26.10254 | 128.80493 | 39029 ft | 485 kts | 149° |
| 2026-04-27 07:22 | -26.15562 | 128.85121 | 39028 ft | 485 kts | 149° |
| 2026-04-27 07:23 | -26.20876 | 128.89760 | 39027 ft | 485 kts | 149° |
| 2026-04-27 07:23 | -26.26187 | 128.94411 | 39026 ft | 487 kts | 147° |
| 2026-04-27 07:24 | -26.31304 | 128.99411 | 39012 ft | 490 kts | 145° |
| 2026-04-27 07:24 | -26.36432 | 129.04423 | 39010 ft | 491 kts | 145° |
| 2026-04-27 07:25 | -26.41564 | 129.09445 | 39023 ft | 492 kts | 145° |
| 2026-04-27 07:25 | -26.46701 | 129.14486 | 39040 ft | 492 kts | 145° |
| 2026-04-27 07:26 | -26.51848 | 129.19545 | 39040 ft | 493 kts | 145° |
| 2026-04-27 07:26 | -26.56993 | 129.24610 | 39039 ft | 493 kts | 145° |
| 2026-04-27 07:27 | -26.62143 | 129.29687 | 39048 ft | 493 kts | 145° |
| 2026-04-27 07:27 | -26.67272 | 129.34748 | 39051 ft | 492 kts | 146° |
| 2026-04-27 07:28 | -26.72398 | 129.39813 | 39053 ft | 491 kts | 146° |
| 2026-04-27 07:28 | -26.77489 | 129.44849 | 39063 ft | 490 kts | 146° |
| 2026-04-27 07:29 | -26.82597 | 129.49908 | 39060 ft | 489 kts | 146° |
| 2026-04-27 07:29 | -26.87687 | 129.54955 | 39055 ft | 488 kts | 146° |
| 2026-04-27 07:30 | -26.92757 | 129.59988 | 39061 ft | 487 kts | 146° |
| 2026-04-27 07:30 | -26.97824 | 129.65025 | 39058 ft | 486 kts | 146° |
| 2026-04-27 07:31 | -27.02873 | 129.70050 | 39065 ft | 485 kts | 146° |
| 2026-04-27 07:31 | -27.07924 | 129.75082 | 39057 ft | 485 kts | 146° |
| 2026-04-27 07:32 | -27.12964 | 129.80111 | 39063 ft | 485 kts | 145° |
| 2026-04-27 07:32 | -27.18012 | 129.85156 | 39065 ft | 485 kts | 145° |
| 2026-04-27 07:33 | -27.23060 | 129.90206 | 39069 ft | 486 kts | 145° |
| 2026-04-27 07:33 | -27.28107 | 129.95261 | 39068 ft | 486 kts | 145° |
| 2026-04-27 07:34 | -27.33123 | 130.00293 | 39072 ft | 486 kts | 145° |
| 2026-04-27 07:34 | -27.38164 | 130.05356 | 39079 ft | 486 kts | 145° |
| 2026-04-27 07:35 | -27.43206 | 130.10426 | 39085 ft | 486 kts | 145° |
| 2026-04-27 07:35 | -27.48250 | 130.15504 | 39093 ft | 486 kts | 145° |
| 2026-04-27 07:36 | -27.53283 | 130.20578 | 39092 ft | 485 kts | 145° |
| 2026-04-27 07:36 | -27.58311 | 130.25652 | 39091 ft | 485 kts | 145° |
| 2026-04-27 07:37 | -27.63333 | 130.30728 | 39089 ft | 485 kts | 145° |
| 2026-04-27 07:37 | -27.68340 | 130.35794 | 39093 ft | 485 kts | 145° |
| 2026-04-27 07:38 | -27.73374 | 130.40895 | 39097 ft | 485 kts | 145° |
| 2026-04-27 07:38 | -27.78395 | 130.45989 | 39098 ft | 485 kts | 145° |
| 2026-04-27 07:39 | -27.83413 | 130.51087 | 39098 ft | 485 kts | 145° |
| 2026-04-27 07:39 | -27.88433 | 130.56193 | 39098 ft | 486 kts | 145° |
| 2026-04-27 07:40 | -27.93431 | 130.61285 | 39103 ft | 486 kts | 145° |
| 2026-04-27 07:40 | -27.98466 | 130.66420 | 39109 ft | 486 kts | 145° |
| 2026-04-27 07:41 | -28.03456 | 130.71516 | 39108 ft | 486 kts | 145° |
| 2026-04-27 07:41 | -28.08473 | 130.76647 | 39114 ft | 486 kts | 145° |
| 2026-04-27 07:42 | -28.13492 | 130.81785 | 39119 ft | 486 kts | 145° |
| 2026-04-27 07:42 | -28.18501 | 130.86920 | 39121 ft | 486 kts | 145° |
| 2026-04-27 07:43 | -28.23506 | 130.92059 | 39127 ft | 485 kts | 145° |
| 2026-04-27 07:43 | -28.28504 | 130.97197 | 39126 ft | 485 kts | 145° |
| 2026-04-27 07:44 | -28.33494 | 131.02332 | 39116 ft | 485 kts | 145° |
| 2026-04-27 07:44 | -28.38478 | 131.07469 | 39124 ft | 484 kts | 144° |
| 2026-04-27 07:45 | -28.43481 | 131.12631 | 39139 ft | 484 kts | 144° |
| 2026-04-27 07:45 | -28.48455 | 131.17769 | 39140 ft | 483 kts | 144° |
| 2026-04-27 07:46 | -28.53425 | 131.22913 | 39127 ft | 483 kts | 144° |
| 2026-04-27 07:46 | -28.58391 | 131.28068 | 39133 ft | 482 kts | 144° |
| 2026-04-27 07:47 | -28.63346 | 131.33209 | 39141 ft | 482 kts | 144° |
| 2026-04-27 07:47 | -28.68286 | 131.38339 | 39146 ft | 481 kts | 144° |
| 2026-04-27 07:48 | -28.73235 | 131.43488 | 39144 ft | 481 kts | 144° |
| 2026-04-27 07:48 | -28.78162 | 131.48623 | 39144 ft | 480 kts | 144° |
| 2026-04-27 07:49 | -28.83085 | 131.53759 | 39146 ft | 479 kts | 144° |
| 2026-04-27 07:49 | -28.87986 | 131.58879 | 39143 ft | 478 kts | 144° |
| 2026-04-27 07:50 | -28.92868 | 131.63987 | 39146 ft | 477 kts | 144° |
| 2026-04-27 07:50 | -28.97786 | 131.69139 | 39143 ft | 477 kts | 144° |
| 2026-04-27 07:51 | -29.02672 | 131.74263 | 39144 ft | 476 kts | 144° |
| 2026-04-27 07:51 | -29.07525 | 131.79361 | 39145 ft | 476 kts | 144° |
| 2026-04-27 07:52 | -29.12380 | 131.84468 | 39146 ft | 475 kts | 144° |
| 2026-04-27 07:52 | -29.17226 | 131.89571 | 39144 ft | 475 kts | 143° |
| 2026-04-27 07:53 | -29.22097 | 131.94708 | 39144 ft | 475 kts | 143° |
| 2026-04-27 07:53 | -29.26956 | 131.99840 | 39144 ft | 474 kts | 143° |
| 2026-04-27 07:54 | -29.31804 | 132.04965 | 39146 ft | 474 kts | 143° |
| 2026-04-27 07:54 | -29.36661 | 132.10108 | 39150 ft | 475 kts | 143° |
| 2026-04-27 07:55 | -29.41502 | 132.15242 | 39148 ft | 474 kts | 143° |
| 2026-04-27 07:55 | -29.45562 | 132.19551 | 39152 ft | 474 kts | 143° |
| 2026-04-27 07:56 | -29.50366 | 132.24657 | 39154 ft | 474 kts | 143° |
| 2026-04-27 07:56 | -29.55226 | 132.29830 | 39149 ft | 473 kts | 143° |
| 2026-04-27 07:57 | -29.60055 | 132.34977 | 39150 ft | 473 kts | 143° |
| 2026-04-27 07:57 | -29.64871 | 132.40117 | 39150 ft | 473 kts | 143° |
| 2026-04-27 07:58 | -29.69688 | 132.45265 | 39152 ft | 472 kts | 143° |
| 2026-04-27 07:58 | -29.74453 | 132.50364 | 39151 ft | 472 kts | 143° |
| 2026-04-27 07:59 | -29.79272 | 132.55529 | 39153 ft | 472 kts | 143° |
| 2026-04-27 07:59 | -29.86476 | 132.63263 | 39155 ft | 472 kts | 142° |
| 2026-04-27 08:00 | -29.91275 | 132.68423 | 39154 ft | 472 kts | 142° |
| 2026-04-27 08:00 | -29.96070 | 132.73587 | 39156 ft | 472 kts | 142° |
| 2026-04-27 08:01 | -30.00866 | 132.78760 | 39155 ft | 472 kts | 142° |
| 2026-04-27 08:01 | -30.05664 | 132.83942 | 39156 ft | 472 kts | 142° |
| 2026-04-27 08:02 | -30.10453 | 132.89121 | 39158 ft | 472 kts | 142° |
| 2026-04-27 08:02 | -30.15240 | 132.94304 | 39156 ft | 472 kts | 142° |
| 2026-04-27 08:03 | -30.20020 | 132.99488 | 39158 ft | 471 kts | 142° |
| 2026-04-27 08:03 | -30.24797 | 133.04676 | 39163 ft | 471 kts | 142° |
| 2026-04-27 08:04 | -30.29559 | 133.09855 | 39171 ft | 470 kts | 142° |
| 2026-04-27 08:04 | -30.34313 | 133.15031 | 39166 ft | 470 kts | 142° |
| 2026-04-27 08:05 | -30.39091 | 133.20241 | 39165 ft | 470 kts | 142° |
| 2026-04-27 08:05 | -30.43837 | 133.25425 | 39170 ft | 469 kts | 142° |
| 2026-04-27 08:06 | -30.48567 | 133.30596 | 39172 ft | 469 kts | 142° |
| 2026-04-27 08:06 | -30.53326 | 133.35808 | 39164 ft | 468 kts | 142° |
| 2026-04-27 08:07 | -30.58058 | 133.40998 | 39166 ft | 468 kts | 142° |
| 2026-04-27 08:07 | -30.62790 | 133.46195 | 39171 ft | 468 kts | 142° |
| 2026-04-27 08:08 | -30.67512 | 133.51388 | 39158 ft | 467 kts | 142° |
| 2026-04-27 08:08 | -30.72208 | 133.56559 | 39165 ft | 467 kts | 142° |
| 2026-04-27 08:09 | -30.76904 | 133.61738 | 39189 ft | 466 kts | 142° |
| 2026-04-27 08:09 | -30.81610 | 133.66930 | 39171 ft | 466 kts | 142° |
| 2026-04-27 08:10 | -30.86306 | 133.72132 | 39175 ft | 465 kts | 142° |
| 2026-04-27 08:10 | -30.91022 | 133.77362 | 39174 ft | 465 kts | 142° |
| 2026-04-27 08:11 | -30.95665 | 133.82510 | 39175 ft | 464 kts | 142° |
| 2026-04-27 08:11 | -31.00341 | 133.87703 | 39176 ft | 463 kts | 142° |
| 2026-04-27 08:12 | -31.04997 | 133.92883 | 39177 ft | 463 kts | 142° |
| 2026-04-27 08:12 | -31.09648 | 133.98066 | 39175 ft | 462 kts | 142° |
| 2026-04-27 08:13 | -31.14287 | 134.03240 | 39175 ft | 461 kts | 142° |
| 2026-04-27 08:13 | -31.18917 | 134.08414 | 39176 ft | 460 kts | 142° |
| 2026-04-27 08:14 | -31.23543 | 134.13591 | 39176 ft | 460 kts | 142° |
| 2026-04-27 08:14 | -31.28157 | 134.18762 | 39177 ft | 459 kts | 142° |
| 2026-04-27 08:15 | -31.32760 | 134.23927 | 39175 ft | 458 kts | 142° |
| 2026-04-27 08:15 | -31.37351 | 134.29085 | 39176 ft | 458 kts | 142° |
| 2026-04-27 08:16 | -31.41936 | 134.34246 | 39178 ft | 457 kts | 142° |
| 2026-04-27 08:16 | -31.46516 | 134.39407 | 39177 ft | 456 kts | 142° |
| 2026-04-27 08:17 | -31.51085 | 134.44563 | 39177 ft | 456 kts | 142° |
| 2026-04-27 08:17 | -31.55643 | 134.49714 | 39176 ft | 455 kts | 142° |
| 2026-04-27 08:18 | -31.60195 | 134.54868 | 39175 ft | 455 kts | 142° |
| 2026-04-27 08:18 | -31.64739 | 134.60016 | 39176 ft | 454 kts | 142° |
| 2026-04-27 08:19 | -31.69285 | 134.65176 | 39175 ft | 454 kts | 142° |
| 2026-04-27 08:19 | -31.73824 | 134.70336 | 39174 ft | 454 kts | 142° |
| 2026-04-27 08:20 | -31.78354 | 134.75492 | 39176 ft | 453 kts | 142° |
| 2026-04-27 08:20 | -31.82872 | 134.80642 | 39175 ft | 453 kts | 142° |
| 2026-04-27 08:21 | -31.87409 | 134.85823 | 39172 ft | 453 kts | 142° |
| 2026-04-27 08:21 | -31.91916 | 134.90974 | 39175 ft | 453 kts | 142° |
| 2026-04-27 08:22 | -31.96423 | 134.96135 | 39176 ft | 454 kts | 141° |
| 2026-04-27 08:22 | -32.00942 | 135.01316 | 39175 ft | 454 kts | 141° |
| 2026-04-27 08:23 | -32.05464 | 135.06509 | 39166 ft | 454 kts | 141° |
| 2026-04-27 08:23 | -32.09990 | 135.11712 | 39177 ft | 454 kts | 141° |
| 2026-04-27 08:24 | -32.14514 | 135.16922 | 39192 ft | 455 kts | 141° |
| 2026-04-27 08:24 | -32.19039 | 135.22142 | 39181 ft | 455 kts | 141° |
| 2026-04-27 08:25 | -32.23560 | 135.27363 | 39186 ft | 455 kts | 141° |
| 2026-04-27 08:25 | -32.28093 | 135.32606 | 39187 ft | 456 kts | 141° |
| 2026-04-27 08:26 | -32.32621 | 135.37849 | 39181 ft | 456 kts | 141° |
| 2026-04-27 08:26 | -32.37150 | 135.43103 | 39185 ft | 456 kts | 141° |
| 2026-04-27 08:27 | -32.41679 | 135.48366 | 39188 ft | 456 kts | 141° |
| 2026-04-27 08:27 | -32.46207 | 135.53636 | 39182 ft | 456 kts | 141° |
| 2026-04-27 08:28 | -32.50722 | 135.58896 | 39184 ft | 456 kts | 141° |
| 2026-04-27 08:28 | -32.55215 | 135.64140 | 39188 ft | 456 kts | 141° |
| 2026-04-27 08:29 | -32.59731 | 135.69417 | 39187 ft | 456 kts | 140° |
| 2026-04-27 08:29 | -32.64245 | 135.74701 | 39187 ft | 456 kts | 140° |
| 2026-04-27 08:30 | -32.68755 | 135.79988 | 39191 ft | 455 kts | 140° |
| 2026-04-27 08:30 | -32.73262 | 135.85280 | 39188 ft | 455 kts | 140° |
| 2026-04-27 08:31 | -32.77757 | 135.90566 | 39187 ft | 455 kts | 140° |
| 2026-04-27 08:31 | -32.82253 | 135.95859 | 39185 ft | 455 kts | 140° |
| 2026-04-27 08:32 | -32.86738 | 136.01148 | 39189 ft | 454 kts | 140° |
| 2026-04-27 08:32 | -32.91227 | 136.06450 | 39189 ft | 454 kts | 140° |
| 2026-04-27 08:33 | -32.95706 | 136.11748 | 39183 ft | 454 kts | 140° |
| 2026-04-27 08:33 | -33.00181 | 136.17047 | 39187 ft | 454 kts | 140° |
| 2026-04-27 08:34 | -33.04656 | 136.22354 | 39194 ft | 454 kts | 140° |
| 2026-04-27 08:34 | -33.09113 | 136.27670 | 39199 ft | 453 kts | 140° |
| 2026-04-27 08:35 | -33.13568 | 136.32985 | 39199 ft | 453 kts | 140° |
| 2026-04-27 08:35 | -33.17989 | 136.38265 | 39207 ft | 453 kts | 140° |